sensor_id;sensor_type;location;lat;lon;timestamp;P1;durP1;ratioP1;P2;durP2;ratioP2
69789;SDS011;57064;52.046;4.800;2023-02-03T00:00:57;11.50;;;2.25;;
69789;SDS011;57064;52.046;4.800;2023-02-03T00:03:23;11.65;;;2.58;;
69789;SDS011;57064;52.046;4.800;2023-02-03T00:05:49;11.18;;;1.90;;
69789;SDS011;57064;52.046;4.800;2023-02-03T00:08:16;12.60;;;2.17;;
69789;SDS011;57064;52.046;4.800;2023-02-03T00:10:43;13.80;;;2.63;;
69789;SDS011;57064;52.046;4.800;2023-02-03T00:13:09;21.67;;;2.67;;
69789;SDS011;57064;52.046;4.800;2023-02-03T00:15:36;13.88;;;2.58;;
69789;SDS011;57064;52.046;4.800;2023-02-03T00:18:02;9.00;;;2.15;;
69789;SDS011;57064;52.046;4.800;2023-02-03T00:20:29;9.20;;;2.42;;
69789;SDS011;57064;52.046;4.800;2023-02-03T00:23:05;9.80;;;2.53;;
69789;SDS011;57064;52.046;4.800;2023-02-03T00:25:33;9.57;;;2.20;;
69789;SDS011;57064;52.046;4.800;2023-02-03T00:27:59;12.82;;;2.50;;
69789;SDS011;57064;52.046;4.800;2023-02-03T00:30:25;15.05;;;2.78;;
69789;SDS011;57064;52.046;4.800;2023-02-03T00:32:52;11.57;;;2.55;;
69789;SDS011;57064;52.046;4.800;2023-02-03T00:35:18;13.25;;;3.17;;
69789;SDS011;57064;52.046;4.800;2023-02-03T00:37:49;9.10;;;2.55;;
69789;SDS011;57064;52.046;4.800;2023-02-03T00:40:17;13.60;;;3.20;;
69789;SDS011;57064;52.046;4.800;2023-02-03T00:42:44;11.18;;;2.67;;
69789;SDS011;57064;52.046;4.800;2023-02-03T00:45:10;13.00;;;2.70;;
69789;SDS011;57064;52.046;4.800;2023-02-03T00:47:38;9.13;;;2.28;;
69789;SDS011;57064;52.046;4.800;2023-02-03T00:50:05;11.15;;;2.35;;
69789;SDS011;57064;52.046;4.800;2023-02-03T00:52:32;9.95;;;3.00;;
69789;SDS011;57064;52.046;4.800;2023-02-03T00:54:58;8.65;;;2.00;;
69789;SDS011;57064;52.046;4.800;2023-02-03T00:57:25;10.88;;;2.97;;
69789;SDS011;57064;52.046;4.800;2023-02-03T00:59:52;17.70;;;3.17;;
69789;SDS011;57064;52.046;4.800;2023-02-03T01:02:18;14.77;;;2.88;;
69789;SDS011;57064;52.046;4.800;2023-02-03T01:04:45;5.13;;;1.77;;
69789;SDS011;57064;52.046;4.800;2023-02-03T01:07:11;8.55;;;1.88;;
69789;SDS011;57064;52.046;4.800;2023-02-03T01:09:37;13.70;;;1.88;;
69789;SDS011;57064;52.046;4.800;2023-02-03T01:12:03;9.40;;;2.05;;
69789;SDS011;57064;52.046;4.800;2023-02-03T01:14:30;14.38;;;2.70;;
69789;SDS011;57064;52.046;4.800;2023-02-03T01:16:56;8.93;;;2.22;;
69789;SDS011;57064;52.046;4.800;2023-02-03T01:19:22;12.25;;;2.63;;
69789;SDS011;57064;52.046;4.800;2023-02-03T01:21:48;13.88;;;2.63;;
69789;SDS011;57064;52.046;4.800;2023-02-03T01:24:15;8.25;;;2.83;;
69789;SDS011;57064;52.046;4.800;2023-02-03T01:26:41;8.10;;;3.95;;
69789;SDS011;57064;52.046;4.800;2023-02-03T01:29:10;13.85;;;2.38;;
69789;SDS011;57064;52.046;4.800;2023-02-03T01:31:38;10.20;;;2.47;;
69789;SDS011;57064;52.046;4.800;2023-02-03T01:34:06;18.88;;;2.15;;
69789;SDS011;57064;52.046;4.800;2023-02-03T01:36:36;12.25;;;2.40;;
69789;SDS011;57064;52.046;4.800;2023-02-03T01:39:03;13.88;;;3.25;;
69789;SDS011;57064;52.046;4.800;2023-02-03T01:41:30;9.93;;;2.35;;
69789;SDS011;57064;52.046;4.800;2023-02-03T01:43:59;12.25;;;2.78;;
69789;SDS011;57064;52.046;4.800;2023-02-03T01:46:34;16.65;;;2.83;;
69789;SDS011;57064;52.046;4.800;2023-02-03T01:49:25;8.98;;;1.48;;
69789;SDS011;57064;52.046;4.800;2023-02-03T01:51:54;9.57;;;2.17;;
69789;SDS011;57064;52.046;4.800;2023-02-03T01:54:28;9.82;;;1.83;;
69789;SDS011;57064;52.046;4.800;2023-02-03T01:56:58;6.57;;;1.33;;
69789;SDS011;57064;52.046;4.800;2023-02-03T01:59:28;5.57;;;1.73;;
69789;SDS011;57064;52.046;4.800;2023-02-03T02:01:55;8.43;;;1.77;;
69789;SDS011;57064;52.046;4.800;2023-02-03T02:04:23;6.00;;;1.92;;
69789;SDS011;57064;52.046;4.800;2023-02-03T02:06:54;6.07;;;1.95;;
69789;SDS011;57064;52.046;4.800;2023-02-03T02:09:22;6.72;;;1.70;;
69789;SDS011;57064;52.046;4.800;2023-02-03T02:11:49;5.05;;;1.33;;
69789;SDS011;57064;52.046;4.800;2023-02-03T02:14:15;16.75;;;1.88;;
69789;SDS011;57064;52.046;4.800;2023-02-03T02:16:46;3.13;;;1.17;;
69789;SDS011;57064;52.046;4.800;2023-02-03T02:19:38;7.47;;;2.30;;
69789;SDS011;57064;52.046;4.800;2023-02-03T02:22:29;5.43;;;1.30;;
69789;SDS011;57064;52.046;4.800;2023-02-03T02:42:13;5.22;;;1.67;;
69789;SDS011;57064;52.046;4.800;2023-02-03T02:44:51;9.35;;;1.42;;
69789;SDS011;57064;52.046;4.800;2023-02-03T02:47:22;12.43;;;3.85;;
69789;SDS011;57064;52.046;4.800;2023-02-03T02:52:18;9.65;;;2.08;;
69789;SDS011;57064;52.046;4.800;2023-02-03T02:54:47;6.90;;;2.15;;
69789;SDS011;57064;52.046;4.800;2023-02-03T02:57:16;13.48;;;1.77;;
69789;SDS011;57064;52.046;4.800;2023-02-03T02:59:46;7.50;;;1.55;;
69789;SDS011;57064;52.046;4.800;2023-02-03T03:02:12;6.85;;;1.58;;
69789;SDS011;57064;52.046;4.800;2023-02-03T03:04:38;8.38;;;1.90;;
69789;SDS011;57064;52.046;4.800;2023-02-03T03:09:43;5.65;;;1.70;;
69789;SDS011;57064;52.046;4.800;2023-02-03T03:12:30;8.52;;;1.50;;
69789;SDS011;57064;52.046;4.800;2023-02-03T03:15:07;9.77;;;1.38;;
69789;SDS011;57064;52.046;4.800;2023-02-03T03:17:41;8.55;;;1.80;;
69789;SDS011;57064;52.046;4.800;2023-02-03T03:20:13;10.10;;;1.70;;
69789;SDS011;57064;52.046;4.800;2023-02-03T03:22:47;7.38;;;1.40;;
69789;SDS011;57064;52.046;4.800;2023-02-03T03:25:20;6.28;;;1.48;;
69789;SDS011;57064;52.046;4.800;2023-02-03T03:28:11;9.98;;;1.60;;
69789;SDS011;57064;52.046;4.800;2023-02-03T03:30:42;4.60;;;1.33;;
69789;SDS011;57064;52.046;4.800;2023-02-03T03:33:09;9.55;;;2.00;;
69789;SDS011;57064;52.046;4.800;2023-02-03T03:35:41;9.77;;;1.58;;
69789;SDS011;57064;52.046;4.800;2023-02-03T03:38:31;3.65;;;1.13;;
69789;SDS011;57064;52.046;4.800;2023-02-03T03:41:14;8.52;;;1.65;;
69789;SDS011;57064;52.046;4.800;2023-02-03T03:44:05;6.20;;;1.40;;
69789;SDS011;57064;52.046;4.800;2023-02-03T03:46:48;4.93;;;0.93;;
69789;SDS011;57064;52.046;4.800;2023-02-03T03:49:19;9.90;;;1.45;;
69789;SDS011;57064;52.046;4.800;2023-02-03T03:51:48;9.18;;;1.35;;
69789;SDS011;57064;52.046;4.800;2023-02-03T03:54:19;4.80;;;0.75;;
69789;SDS011;57064;52.046;4.800;2023-02-03T03:56:50;6.95;;;1.05;;
69789;SDS011;57064;52.046;4.800;2023-02-03T03:59:27;4.70;;;1.48;;
69789;SDS011;57064;52.046;4.800;2023-02-03T04:01:55;4.60;;;1.20;;
69789;SDS011;57064;52.046;4.800;2023-02-03T04:04:23;4.57;;;1.00;;
69789;SDS011;57064;52.046;4.800;2023-02-03T04:06:51;4.75;;;1.20;;
69789;SDS011;57064;52.046;4.800;2023-02-03T04:09:18;7.72;;;1.45;;
69789;SDS011;57064;52.046;4.800;2023-02-03T04:11:44;10.77;;;2.30;;
69789;SDS011;57064;52.046;4.800;2023-02-03T04:14:29;8.65;;;1.25;;
69789;SDS011;57064;52.046;4.800;2023-02-03T04:16:57;4.90;;;1.70;;
69789;SDS011;57064;52.046;4.800;2023-02-03T04:19:25;6.32;;;1.33;;
69789;SDS011;57064;52.046;4.800;2023-02-03T04:21:53;8.85;;;1.20;;
69789;SDS011;57064;52.046;4.800;2023-02-03T04:24:21;3.17;;;1.13;;
69789;SDS011;57064;52.046;4.800;2023-02-03T04:26:47;7.20;;;1.58;;
69789;SDS011;57064;52.046;4.800;2023-02-03T04:29:13;11.82;;;2.28;;
69789;SDS011;57064;52.046;4.800;2023-02-03T04:31:39;10.35;;;1.48;;
69789;SDS011;57064;52.046;4.800;2023-02-03T04:34:06;6.45;;;1.23;;
69789;SDS011;57064;52.046;4.800;2023-02-03T04:36:32;4.35;;;1.23;;
69789;SDS011;57064;52.046;4.800;2023-02-03T04:38:58;6.65;;;1.85;;
69789;SDS011;57064;52.046;4.800;2023-02-03T04:41:24;7.10;;;2.13;;
69789;SDS011;57064;52.046;4.800;2023-02-03T04:43:50;9.02;;;1.75;;
69789;SDS011;57064;52.046;4.800;2023-02-03T04:46:16;9.75;;;1.75;;
69789;SDS011;57064;52.046;4.800;2023-02-03T04:48:42;11.35;;;1.98;;
69789;SDS011;57064;52.046;4.800;2023-02-03T04:51:09;8.05;;;1.30;;
69789;SDS011;57064;52.046;4.800;2023-02-03T04:53:35;4.18;;;1.08;;
69789;SDS011;57064;52.046;4.800;2023-02-03T04:56:01;11.73;;;1.80;;
69789;SDS011;57064;52.046;4.800;2023-02-03T04:58:28;6.28;;;1.20;;
69789;SDS011;57064;52.046;4.800;2023-02-03T05:00:54;8.98;;;1.42;;
69789;SDS011;57064;52.046;4.800;2023-02-03T05:03:20;7.72;;;1.38;;
69789;SDS011;57064;52.046;4.800;2023-02-03T05:05:47;5.43;;;0.90;;
69789;SDS011;57064;52.046;4.800;2023-02-03T05:08:14;5.38;;;0.90;;
69789;SDS011;57064;52.046;4.800;2023-02-03T05:10:40;6.50;;;1.63;;
69789;SDS011;57064;52.046;4.800;2023-02-03T05:13:06;6.38;;;1.02;;
69789;SDS011;57064;52.046;4.800;2023-02-03T05:15:32;4.68;;;1.10;;
69789;SDS011;57064;52.046;4.800;2023-02-03T05:17:58;6.45;;;1.30;;
69789;SDS011;57064;52.046;4.800;2023-02-03T05:20:24;10.45;;;1.48;;
69789;SDS011;57064;52.046;4.800;2023-02-03T05:22:52;6.95;;;1.02;;
69789;SDS011;57064;52.046;4.800;2023-02-03T05:25:18;6.25;;;1.77;;
69789;SDS011;57064;52.046;4.800;2023-02-03T05:27:44;8.60;;;1.52;;
69789;SDS011;57064;52.046;4.800;2023-02-03T05:30:10;9.05;;;1.27;;
69789;SDS011;57064;52.046;4.800;2023-02-03T05:32:36;5.93;;;1.13;;
69789;SDS011;57064;52.046;4.800;2023-02-03T05:35:02;8.82;;;1.52;;
69789;SDS011;57064;52.046;4.800;2023-02-03T05:37:29;8.15;;;1.52;;
69789;SDS011;57064;52.046;4.800;2023-02-03T05:39:55;7.82;;;1.10;;
69789;SDS011;57064;52.046;4.800;2023-02-03T05:42:45;8.93;;;1.52;;
69789;SDS011;57064;52.046;4.800;2023-02-03T05:45:12;3.10;;;1.10;;
69789;SDS011;57064;52.046;4.800;2023-02-03T05:47:38;7.93;;;1.30;;
69789;SDS011;57064;52.046;4.800;2023-02-03T05:50:04;8.32;;;2.05;;
69789;SDS011;57064;52.046;4.800;2023-02-03T05:52:30;5.20;;;1.40;;
69789;SDS011;57064;52.046;4.800;2023-02-03T05:54:56;11.57;;;1.85;;
69789;SDS011;57064;52.046;4.800;2023-02-03T05:57:22;5.35;;;1.35;;
69789;SDS011;57064;52.046;4.800;2023-02-03T05:59:48;11.50;;;1.70;;
69789;SDS011;57064;52.046;4.800;2023-02-03T06:02:14;5.15;;;1.33;;
69789;SDS011;57064;52.046;4.800;2023-02-03T06:04:40;6.35;;;1.63;;
69789;SDS011;57064;52.046;4.800;2023-02-03T06:07:06;10.10;;;1.88;;
69789;SDS011;57064;52.046;4.800;2023-02-03T06:09:33;8.65;;;1.35;;
69789;SDS011;57064;52.046;4.800;2023-02-03T06:11:59;7.97;;;1.52;;
69789;SDS011;57064;52.046;4.800;2023-02-03T06:14:25;7.55;;;1.75;;
69789;SDS011;57064;52.046;4.800;2023-02-03T06:16:52;11.77;;;2.10;;
69789;SDS011;57064;52.046;4.800;2023-02-03T06:19:18;6.40;;;1.73;;
69789;SDS011;57064;52.046;4.800;2023-02-03T06:21:44;5.68;;;1.27;;
69789;SDS011;57064;52.046;4.800;2023-02-03T06:24:10;8.82;;;2.15;;
69789;SDS011;57064;52.046;4.800;2023-02-03T06:26:36;4.93;;;1.98;;
69789;SDS011;57064;52.046;4.800;2023-02-03T06:29:02;13.55;;;2.00;;
69789;SDS011;57064;52.046;4.800;2023-02-03T06:31:28;9.73;;;1.75;;
69789;SDS011;57064;52.046;4.800;2023-02-03T06:33:54;12.55;;;1.90;;
69789;SDS011;57064;52.046;4.800;2023-02-03T06:36:21;8.00;;;1.40;;
69789;SDS011;57064;52.046;4.800;2023-02-03T06:38:47;5.72;;;1.48;;
69789;SDS011;57064;52.046;4.800;2023-02-03T06:41:13;10.68;;;2.20;;
69789;SDS011;57064;52.046;4.800;2023-02-03T06:43:39;9.43;;;1.60;;
69789;SDS011;57064;52.046;4.800;2023-02-03T06:46:05;5.72;;;1.67;;
69789;SDS011;57064;52.046;4.800;2023-02-03T06:48:32;7.85;;;1.55;;
69789;SDS011;57064;52.046;4.800;2023-02-03T06:50:58;9.23;;;2.03;;
69789;SDS011;57064;52.046;4.800;2023-02-03T06:53:24;15.35;;;2.33;;
69789;SDS011;57064;52.046;4.800;2023-02-03T06:55:50;9.02;;;2.00;;
69789;SDS011;57064;52.046;4.800;2023-02-03T06:58:16;15.25;;;1.98;;
69789;SDS011;57064;52.046;4.800;2023-02-03T07:00:42;10.05;;;2.63;;
69789;SDS011;57064;52.046;4.800;2023-02-03T07:03:08;13.82;;;2.78;;
69789;SDS011;57064;52.046;4.800;2023-02-03T07:05:34;8.77;;;2.40;;
69789;SDS011;57064;52.046;4.800;2023-02-03T07:08:01;8.98;;;1.90;;
69789;SDS011;57064;52.046;4.800;2023-02-03T07:10:27;12.20;;;2.45;;
69789;SDS011;57064;52.046;4.800;2023-02-03T07:12:53;11.23;;;2.67;;
69789;SDS011;57064;52.046;4.800;2023-02-03T07:15:19;8.50;;;1.65;;
69789;SDS011;57064;52.046;4.800;2023-02-03T07:17:46;7.45;;;1.90;;
69789;SDS011;57064;52.046;4.800;2023-02-03T07:20:18;9.82;;;2.58;;
69789;SDS011;57064;52.046;4.800;2023-02-03T07:22:49;11.38;;;1.85;;
69789;SDS011;57064;52.046;4.800;2023-02-03T07:25:18;9.55;;;3.15;;
69789;SDS011;57064;52.046;4.800;2023-02-03T07:27:44;9.45;;;2.63;;
69789;SDS011;57064;52.046;4.800;2023-02-03T07:30:10;7.60;;;2.15;;
69789;SDS011;57064;52.046;4.800;2023-02-03T07:32:37;12.35;;;1.80;;
69789;SDS011;57064;52.046;4.800;2023-02-03T07:35:03;6.75;;;1.85;;
69789;SDS011;57064;52.046;4.800;2023-02-03T07:37:29;9.23;;;2.33;;
69789;SDS011;57064;52.046;4.800;2023-02-03T07:39:56;14.15;;;2.13;;
69789;SDS011;57064;52.046;4.800;2023-02-03T07:42:22;13.65;;;1.88;;
69789;SDS011;57064;52.046;4.800;2023-02-03T07:44:48;9.77;;;2.05;;
69789;SDS011;57064;52.046;4.800;2023-02-03T07:47:14;17.33;;;2.75;;
69789;SDS011;57064;52.046;4.800;2023-02-03T07:49:40;12.95;;;2.67;;
69789;SDS011;57064;52.046;4.800;2023-02-03T07:52:07;6.63;;;1.80;;
69789;SDS011;57064;52.046;4.800;2023-02-03T07:54:33;9.93;;;1.83;;
69789;SDS011;57064;52.046;4.800;2023-02-03T07:56:59;10.38;;;2.10;;
69789;SDS011;57064;52.046;4.800;2023-02-03T07:59:25;9.32;;;2.42;;
69789;SDS011;57064;52.046;4.800;2023-02-03T08:01:51;10.27;;;2.10;;
69789;SDS011;57064;52.046;4.800;2023-02-03T08:04:20;9.02;;;1.65;;
69789;SDS011;57064;52.046;4.800;2023-02-03T08:06:48;6.93;;;1.80;;
69789;SDS011;57064;52.046;4.800;2023-02-03T08:09:14;8.18;;;2.30;;
69789;SDS011;57064;52.046;4.800;2023-02-03T08:11:40;11.25;;;2.30;;
69789;SDS011;57064;52.046;4.800;2023-02-03T08:14:06;13.25;;;2.28;;
69789;SDS011;57064;52.046;4.800;2023-02-03T08:16:33;8.07;;;2.90;;
69789;SDS011;57064;52.046;4.800;2023-02-03T08:19:00;15.63;;;2.47;;
69789;SDS011;57064;52.046;4.800;2023-02-03T08:21:26;15.13;;;3.20;;
69789;SDS011;57064;52.046;4.800;2023-02-03T08:23:52;3.83;;;1.38;;
69789;SDS011;57064;52.046;4.800;2023-02-03T08:26:19;7.57;;;1.67;;
69789;SDS011;57064;52.046;4.800;2023-02-03T08:28:48;7.15;;;2.05;;
69789;SDS011;57064;52.046;4.800;2023-02-03T08:31:14;12.90;;;2.50;;
69789;SDS011;57064;52.046;4.800;2023-02-03T08:33:41;17.17;;;2.92;;
69789;SDS011;57064;52.046;4.800;2023-02-03T08:36:07;12.73;;;2.33;;
69789;SDS011;57064;52.046;4.800;2023-02-03T08:38:35;13.13;;;2.90;;
69789;SDS011;57064;52.046;4.800;2023-02-03T08:41:06;10.82;;;2.22;;
69789;SDS011;57064;52.046;4.800;2023-02-03T08:43:34;9.68;;;1.80;;
69789;SDS011;57064;52.046;4.800;2023-02-03T08:46:01;6.30;;;1.60;;
69789;SDS011;57064;52.046;4.800;2023-02-03T08:48:31;12.93;;;2.35;;
69789;SDS011;57064;52.046;4.800;2023-02-03T08:50:58;6.55;;;1.70;;
69789;SDS011;57064;52.046;4.800;2023-02-03T08:53:24;10.80;;;1.75;;
69789;SDS011;57064;52.046;4.800;2023-02-03T08:55:51;14.25;;;2.35;;
69789;SDS011;57064;52.046;4.800;2023-02-03T08:58:18;9.25;;;2.55;;
69789;SDS011;57064;52.046;4.800;2023-02-03T09:00:44;9.95;;;2.42;;
69789;SDS011;57064;52.046;4.800;2023-02-03T09:03:13;13.27;;;2.22;;
69789;SDS011;57064;52.046;4.800;2023-02-03T09:05:39;12.95;;;2.38;;
69789;SDS011;57064;52.046;4.800;2023-02-03T09:08:05;7.30;;;1.70;;
69789;SDS011;57064;52.046;4.800;2023-02-03T09:10:31;10.90;;;2.42;;
69789;SDS011;57064;52.046;4.800;2023-02-03T09:12:57;12.20;;;2.58;;
69789;SDS011;57064;52.046;4.800;2023-02-03T09:15:24;6.50;;;2.10;;
69789;SDS011;57064;52.046;4.800;2023-02-03T09:17:51;9.68;;;2.55;;
69789;SDS011;57064;52.046;4.800;2023-02-03T09:20:19;9.52;;;3.10;;
69789;SDS011;57064;52.046;4.800;2023-02-03T09:22:45;7.40;;;1.98;;
69789;SDS011;57064;52.046;4.800;2023-02-03T09:25:11;9.32;;;2.17;;
69789;SDS011;57064;52.046;4.800;2023-02-03T09:27:38;11.60;;;1.65;;
69789;SDS011;57064;52.046;4.800;2023-02-03T09:30:04;10.20;;;1.90;;
69789;SDS011;57064;52.046;4.800;2023-02-03T09:32:30;9.52;;;2.05;;
69789;SDS011;57064;52.046;4.800;2023-02-03T09:34:57;7.45;;;1.70;;
69789;SDS011;57064;52.046;4.800;2023-02-03T09:37:24;7.32;;;1.80;;
69789;SDS011;57064;52.046;4.800;2023-02-03T09:39:50;11.52;;;2.42;;
69789;SDS011;57064;52.046;4.800;2023-02-03T09:47:40;12.73;;;2.50;;
69789;SDS011;57064;52.046;4.800;2023-02-03T09:50:17;6.15;;;1.90;;
69789;SDS011;57064;52.046;4.800;2023-02-03T09:52:46;8.57;;;2.75;;
69789;SDS011;57064;52.046;4.800;2023-02-03T09:58:00;9.18;;;1.92;;
69789;SDS011;57064;52.046;4.800;2023-02-03T10:12:04;9.63;;;1.88;;
69789;SDS011;57064;52.046;4.800;2023-02-03T10:17:47;5.53;;;1.50;;
69789;SDS011;57064;52.046;4.800;2023-02-03T10:20:44;9.50;;;2.08;;
69789;SDS011;57064;52.046;4.800;2023-02-03T10:23:12;8.38;;;1.63;;
69789;SDS011;57064;52.046;4.800;2023-02-03T10:28:20;7.90;;;1.77;;
69789;SDS011;57064;52.046;4.800;2023-02-03T10:30:58;7.53;;;1.77;;
69789;SDS011;57064;52.046;4.800;2023-02-03T10:33:29;4.15;;;1.40;;
69789;SDS011;57064;52.046;4.800;2023-02-03T10:38:58;11.77;;;2.03;;
69789;SDS011;57064;52.046;4.800;2023-02-03T10:41:31;6.90;;;2.17;;
69789;SDS011;57064;52.046;4.800;2023-02-03T10:43:58;7.15;;;1.55;;
69789;SDS011;57064;52.046;4.800;2023-02-03T10:46:31;6.68;;;1.52;;
69789;SDS011;57064;52.046;4.800;2023-02-03T10:48:59;5.88;;;1.70;;
69789;SDS011;57064;52.046;4.800;2023-02-03T10:51:27;4.13;;;1.60;;
69789;SDS011;57064;52.046;4.800;2023-02-03T10:54:06;7.18;;;2.30;;
69789;SDS011;57064;52.046;4.800;2023-02-03T10:57:00;10.02;;;2.10;;
69789;SDS011;57064;52.046;4.800;2023-02-03T10:59:46;9.27;;;1.85;;
69789;SDS011;57064;52.046;4.800;2023-02-03T11:02:20;8.57;;;1.73;;
69789;SDS011;57064;52.046;4.800;2023-02-03T11:04:47;8.55;;;1.65;;
69789;SDS011;57064;52.046;4.800;2023-02-03T11:07:31;5.22;;;1.63;;
69789;SDS011;57064;52.046;4.800;2023-02-03T11:09:57;4.50;;;2.00;;
69789;SDS011;57064;52.046;4.800;2023-02-03T11:12:24;5.85;;;1.83;;
69789;SDS011;57064;52.046;4.800;2023-02-03T11:14:50;8.48;;;2.00;;
69789;SDS011;57064;52.046;4.800;2023-02-03T11:17:19;5.38;;;1.50;;
69789;SDS011;57064;52.046;4.800;2023-02-03T11:19:47;7.55;;;1.80;;
69789;SDS011;57064;52.046;4.800;2023-02-03T11:22:36;8.38;;;2.00;;
69789;SDS011;57064;52.046;4.800;2023-02-03T11:25:05;7.90;;;2.03;;
69789;SDS011;57064;52.046;4.800;2023-02-03T11:27:42;5.45;;;1.83;;
69789;SDS011;57064;52.046;4.800;2023-02-03T11:30:10;9.55;;;2.40;;
69789;SDS011;57064;52.046;4.800;2023-02-03T11:32:41;7.50;;;1.80;;
69789;SDS011;57064;52.046;4.800;2023-02-03T11:35:26;7.90;;;2.35;;
69789;SDS011;57064;52.046;4.800;2023-02-03T11:37:55;10.65;;;2.20;;
69789;SDS011;57064;52.046;4.800;2023-02-03T11:40:28;9.30;;;2.17;;
69789;SDS011;57064;52.046;4.800;2023-02-03T11:43:08;5.22;;;1.63;;
69789;SDS011;57064;52.046;4.800;2023-02-03T11:45:42;11.38;;;2.78;;
69789;SDS011;57064;52.046;4.800;2023-02-03T11:56:51;8.95;;;1.90;;
69789;SDS011;57064;52.046;4.800;2023-02-03T12:15:44;6.18;;;2.35;;
69789;SDS011;57064;52.046;4.800;2023-02-03T12:29:03;7.95;;;2.40;;
69789;SDS011;57064;52.046;4.800;2023-02-03T12:31:46;9.43;;;2.30;;
69789;SDS011;57064;52.046;4.800;2023-02-03T12:34:27;3.92;;;1.80;;
69789;SDS011;57064;52.046;4.800;2023-02-03T12:44:49;5.65;;;2.10;;
69789;SDS011;57064;52.046;4.800;2023-02-03T12:49:56;8.38;;;2.20;;
69789;SDS011;57064;52.046;4.800;2023-02-03T12:55:13;13.30;;;2.30;;
69789;SDS011;57064;52.046;4.800;2023-02-03T12:57:59;9.05;;;2.38;;
69789;SDS011;57064;52.046;4.800;2023-02-03T13:00:36;11.20;;;2.45;;
69789;SDS011;57064;52.046;4.800;2023-02-03T13:08:54;10.48;;;2.65;;
69789;SDS011;57064;52.046;4.800;2023-02-03T13:11:43;10.93;;;2.90;;
69789;SDS011;57064;52.046;4.800;2023-02-03T13:14:40;9.27;;;2.15;;
69789;SDS011;57064;52.046;4.800;2023-02-03T13:17:29;6.55;;;2.10;;
69789;SDS011;57064;52.046;4.800;2023-02-03T13:20:13;8.52;;;3.03;;
69789;SDS011;57064;52.046;4.800;2023-02-03T13:22:44;9.18;;;2.25;;
69789;SDS011;57064;52.046;4.800;2023-02-03T13:28:05;7.72;;;2.42;;
69789;SDS011;57064;52.046;4.800;2023-02-03T13:30:45;7.90;;;2.15;;
69789;SDS011;57064;52.046;4.800;2023-02-03T13:33:43;12.95;;;3.13;;
69789;SDS011;57064;52.046;4.800;2023-02-03T13:36:32;12.90;;;2.85;;
69789;SDS011;57064;52.046;4.800;2023-02-03T13:41:47;16.77;;;4.00;;
69789;SDS011;57064;52.046;4.800;2023-02-03T13:44:23;7.40;;;2.50;;
69789;SDS011;57064;52.046;4.800;2023-02-03T13:46:52;8.82;;;2.95;;
69789;SDS011;57064;52.046;4.800;2023-02-03T13:49:23;8.10;;;2.70;;
69789;SDS011;57064;52.046;4.800;2023-02-03T13:51:52;12.68;;;3.38;;
69789;SDS011;57064;52.046;4.800;2023-02-03T13:54:34;15.75;;;3.45;;
69789;SDS011;57064;52.046;4.800;2023-02-03T13:57:03;16.27;;;4.00;;
69789;SDS011;57064;52.046;4.800;2023-02-03T13:59:41;13.77;;;3.00;;
69789;SDS011;57064;52.046;4.800;2023-02-03T14:07:43;10.02;;;3.03;;
69789;SDS011;57064;52.046;4.800;2023-02-03T14:20:56;15.40;;;3.22;;
69789;SDS011;57064;52.046;4.800;2023-02-03T14:23:37;16.55;;;3.67;;
69789;SDS011;57064;52.046;4.800;2023-02-03T14:26:13;19.90;;;3.90;;
69789;SDS011;57064;52.046;4.800;2023-02-03T14:28:45;15.05;;;4.40;;
69789;SDS011;57064;52.046;4.800;2023-02-03T14:31:19;17.65;;;4.22;;
69789;SDS011;57064;52.046;4.800;2023-02-03T14:46:58;11.43;;;3.33;;
69789;SDS011;57064;52.046;4.800;2023-02-03T14:55:46;14.05;;;3.42;;
69789;SDS011;57064;52.046;4.800;2023-02-03T14:58:27;10.68;;;2.67;;
69789;SDS011;57064;52.046;4.800;2023-02-03T15:00:57;10.35;;;2.80;;
69789;SDS011;57064;52.046;4.800;2023-02-03T15:03:25;11.68;;;3.05;;
69789;SDS011;57064;52.046;4.800;2023-02-03T15:05:55;7.65;;;2.38;;
69789;SDS011;57064;52.046;4.800;2023-02-03T15:13:48;12.15;;;2.90;;
69789;SDS011;57064;52.046;4.800;2023-02-03T15:16:15;9.98;;;3.28;;
69789;SDS011;57064;52.046;4.800;2023-02-03T15:18:44;18.05;;;3.88;;
69789;SDS011;57064;52.046;4.800;2023-02-03T15:21:17;14.98;;;2.45;;
69789;SDS011;57064;52.046;4.800;2023-02-03T15:23:45;12.80;;;3.22;;
69789;SDS011;57064;52.046;4.800;2023-02-03T15:26:13;14.27;;;3.45;;
69789;SDS011;57064;52.046;4.800;2023-02-03T15:28:42;13.18;;;3.63;;
69789;SDS011;57064;52.046;4.800;2023-02-03T15:31:15;13.18;;;2.65;;
69789;SDS011;57064;52.046;4.800;2023-02-03T15:33:46;10.68;;;2.92;;
69789;SDS011;57064;52.046;4.800;2023-02-03T15:36:18;9.93;;;3.50;;
69789;SDS011;57064;52.046;4.800;2023-02-03T15:38:49;19.40;;;3.65;;
69789;SDS011;57064;52.046;4.800;2023-02-03T15:41:23;15.13;;;3.17;;
69789;SDS011;57064;52.046;4.800;2023-02-03T15:43:51;14.52;;;3.10;;
69789;SDS011;57064;52.046;4.800;2023-02-03T15:46:37;11.52;;;3.38;;
69789;SDS011;57064;52.046;4.800;2023-02-03T15:49:09;12.02;;;2.53;;
69789;SDS011;57064;52.046;4.800;2023-02-03T15:51:42;7.10;;;2.20;;
69789;SDS011;57064;52.046;4.800;2023-02-03T16:02:38;17.08;;;3.60;;
69789;SDS011;57064;52.046;4.800;2023-02-03T16:05:20;11.70;;;2.58;;
69789;SDS011;57064;52.046;4.800;2023-02-03T16:10:34;16.08;;;3.22;;
69789;SDS011;57064;52.046;4.800;2023-02-03T16:16:06;13.43;;;2.72;;
69789;SDS011;57064;52.046;4.800;2023-02-03T16:30:34;14.75;;;3.30;;
69789;SDS011;57064;52.046;4.800;2023-02-03T16:35:53;22.48;;;4.03;;
69789;SDS011;57064;52.046;4.800;2023-02-03T16:38:49;17.70;;;4.10;;
69789;SDS011;57064;52.046;4.800;2023-02-03T16:41:34;13.93;;;3.20;;
69789;SDS011;57064;52.046;4.800;2023-02-03T16:44:20;19.67;;;3.85;;
69789;SDS011;57064;52.046;4.800;2023-02-03T16:47:24;17.63;;;3.40;;
69789;SDS011;57064;52.046;4.800;2023-02-03T16:50:28;15.05;;;3.80;;
69789;SDS011;57064;52.046;4.800;2023-02-03T16:53:14;16.35;;;4.45;;
69789;SDS011;57064;52.046;4.800;2023-02-03T16:55:42;18.65;;;3.00;;
69789;SDS011;57064;52.046;4.800;2023-02-03T16:58:09;15.95;;;3.17;;
69789;SDS011;57064;52.046;4.800;2023-02-03T17:00:36;17.05;;;3.92;;
69789;SDS011;57064;52.046;4.800;2023-02-03T17:03:07;16.63;;;3.72;;
69789;SDS011;57064;52.046;4.800;2023-02-03T17:05:37;15.38;;;2.88;;
69789;SDS011;57064;52.046;4.800;2023-02-03T17:08:05;16.08;;;2.78;;
69789;SDS011;57064;52.046;4.800;2023-02-03T17:10:32;19.77;;;3.53;;
69789;SDS011;57064;52.046;4.800;2023-02-03T17:12:59;24.38;;;4.70;;
69789;SDS011;57064;52.046;4.800;2023-02-03T17:15:25;12.98;;;2.58;;
69789;SDS011;57064;52.046;4.800;2023-02-03T17:17:53;17.52;;;3.03;;
69789;SDS011;57064;52.046;4.800;2023-02-03T17:20:19;18.15;;;4.43;;
69789;SDS011;57064;52.046;4.800;2023-02-03T17:22:45;14.70;;;2.63;;
69789;SDS011;57064;52.046;4.800;2023-02-03T17:25:11;14.30;;;2.58;;
69789;SDS011;57064;52.046;4.800;2023-02-03T17:27:37;12.35;;;3.15;;
69789;SDS011;57064;52.046;4.800;2023-02-03T17:30:03;18.95;;;3.15;;
69789;SDS011;57064;52.046;4.800;2023-02-03T17:32:30;22.08;;;3.10;;
69789;SDS011;57064;52.046;4.800;2023-02-03T17:34:56;20.83;;;2.83;;
69789;SDS011;57064;52.046;4.800;2023-02-03T17:37:22;15.85;;;3.25;;
69789;SDS011;57064;52.046;4.800;2023-02-03T17:39:48;14.55;;;4.45;;
69789;SDS011;57064;52.046;4.800;2023-02-03T17:42:14;16.63;;;4.25;;
69789;SDS011;57064;52.046;4.800;2023-02-03T17:44:40;15.75;;;3.55;;
69789;SDS011;57064;52.046;4.800;2023-02-03T17:47:06;12.85;;;3.20;;
69789;SDS011;57064;52.046;4.800;2023-02-03T17:49:32;19.33;;;3.65;;
69789;SDS011;57064;52.046;4.800;2023-02-03T17:51:58;26.23;;;3.35;;
69789;SDS011;57064;52.046;4.800;2023-02-03T17:54:25;18.52;;;3.08;;
69789;SDS011;57064;52.046;4.800;2023-02-03T17:56:51;26.58;;;4.07;;
69789;SDS011;57064;52.046;4.800;2023-02-03T17:59:17;21.75;;;3.50;;